Time;durP1;ratioP1;P1;durP2;ratioP2;P2;SDS_P1;SDS_P2;PMS_P1;PMS_P2;Temp;Humidity;BMP_temperature;BMP_pressure;BME280_temperature;BME280_humidity;BME280_pressure;Samples;Min_cycle;Max_cycle;Signal;HPM_P1;HPM_P2
2023/12/11 00:01:01;;;;;;;1.00;0.90;;;;;;;;;;4926512;29;20217;-71
2023/12/11 00:03:27;;;;;;;0.73;0.73;;;;;;;;;;4921138;29;20220;-72
2023/12/11 00:05:52;;;;;;;1.07;0.83;;;;;;;;;;4905865;29;20257;-72
2023/12/11 00:08:17;;;;;;;1.90;1.00;;;;;;;;;;4910089;29;20178;-72
2023/12/11 00:10:42;;;;;;;0.60;0.60;;;;;;;;;;4905388;29;20256;-72
2023/12/11 00:13:07;;;;;;;0.50;0.50;;;;;;;;;;4906279;29;20217;-72
2023/12/11 00:15:33;;;;;;;1.47;0.80;;;;;;;;;;4904207;29;20192;-72
2023/12/11 00:17:58;;;;;;;0.77;0.77;;;;;;;;;;4900065;29;20191;-72
2023/12/11 00:20:23;;;;;;;0.70;0.70;;;;;;;;;;4907803;29;20254;-72
2023/12/11 00:22:48;;;;;;;1.30;0.67;;;;;;;;;;4910175;29;20208;-72
2023/12/11 00:25:14;;;;;;;0.77;0.77;;;;;;;;;;4908353;29;20195;-72
2023/12/11 00:27:39;;;;;;;0.47;0.47;;;;;;;;;;4909083;29;20187;-72
2023/12/11 00:30:05;;;;;;;1.97;0.93;;;;;;;;;;4913290;29;20394;-72
2023/12/11 00:32:31;;;;;;;1.63;0.80;;;;;;;;;;4911232;29;20175;-72
2023/12/11 00:34:56;;;;;;;0.80;0.80;;;;;;;;;;4913378;29;20187;-72
2023/12/11 00:37:21;;;;;;;1.27;0.70;;;;;;;;;;4910818;29;20237;-71
2023/12/11 00:39:46;;;;;;;1.10;0.77;;;;;;;;;;4913729;29;20179;-72
2023/12/11 00:42:12;;;;;;;0.80;0.80;;;;;;;;;;4915075;29;20598;-71
2023/12/11 00:44:37;;;;;;;0.80;0.80;;;;;;;;;;4912844;29;20183;-71
2023/12/11 00:47:04;;;;;;;1.00;0.90;;;;;;;;;;4911864;29;20198;-71
2023/12/11 00:49:29;;;;;;;0.93;0.83;;;;;;;;;;4911364;29;20194;-71
2023/12/11 00:51:54;;;;;;;1.80;1.00;;;;;;;;;;4912978;29;20193;-72
2023/12/11 00:54:19;;;;;;;0.83;0.83;;;;;;;;;;4917057;29;20233;-71
2023/12/11 00:56:46;;;;;;;1.40;0.80;;;;;;;;;;4914944;29;20183;-71
2023/12/11 00:59:11;;;;;;;1.33;0.80;;;;;;;;;;4912054;29;20216;-72
2023/12/11 01:01:36;;;;;;;0.80;0.80;;;;;;;;;;4909322;29;20225;-71
2023/12/11 01:04:01;;;;;;;1.20;0.97;;;;;;;;;;4913665;29;20189;-71
2023/12/11 01:06:26;;;;;;;1.20;1.10;;;;;;;;;;4912840;29;20202;-71
2023/12/11 01:08:52;;;;;;;1.90;1.00;;;;;;;;;;4909803;29;20186;-72
2023/12/11 01:11:17;;;;;;;1.50;1.40;;;;;;;;;;4912576;29;20193;-72
2023/12/11 01:13:42;;;;;;;1.23;1.00;;;;;;;;;;4915543;29;20186;-71
2023/12/11 01:16:07;;;;;;;1.17;1.07;;;;;;;;;;4913326;29;20179;-71
2023/12/11 01:18:33;;;;;;;0.80;0.80;;;;;;;;;;4911996;29;20218;-71
2023/12/11 01:20:59;;;;;;;1.47;1.20;;;;;;;;;;4912706;29;20205;-72
2023/12/11 01:23:25;;;;;;;1.00;0.90;;;;;;;;;;4914366;29;20186;-71
2023/12/11 01:25:50;;;;;;;0.73;0.73;;;;;;;;;;4914955;29;20187;-72
2023/12/11 01:28:15;;;;;;;0.70;0.70;;;;;;;;;;4912219;29;20191;-71
2023/12/11 01:30:41;;;;;;;1.60;0.90;;;;;;;;;;4912447;29;20187;-72
2023/12/11 01:33:06;;;;;;;0.70;0.50;;;;;;;;;;4908849;29;20429;-71
2023/12/11 01:35:34;;;;;;;0.57;0.57;;;;;;;;;;4912953;29;20199;-71
2023/12/11 01:37:59;;;;;;;0.47;0.47;;;;;;;;;;4908378;29;20192;-72
2023/12/11 01:40:25;;;;;;;0.63;0.60;;;;;;;;;;4913831;29;20180;-72
2023/12/11 01:42:50;;;;;;;0.60;0.60;;;;;;;;;;4914328;29;20199;-71
2023/12/11 01:45:16;;;;;;;0.57;0.50;;;;;;;;;;4910863;29;20248;-72
2023/12/11 01:47:41;;;;;;;0.50;0.50;;;;;;;;;;4909138;29;20210;-72
2023/12/11 01:50:07;;;;;;;0.50;0.50;;;;;;;;;;4915463;29;20217;-72
2023/12/11 01:52:32;;;;;;;2.50;0.60;;;;;;;;;;4906683;29;20187;-72
2023/12/11 01:54:57;;;;;;;0.90;0.90;;;;;;;;;;4915993;29;20245;-72
2023/12/11 01:57:23;;;;;;;0.90;0.90;;;;;;;;;;4917103;29;20182;-72
2023/12/11 01:59:48;;;;;;;0.87;0.70;;;;;;;;;;4910913;29;20268;-72
2023/12/11 02:02:13;;;;;;;2.50;1.30;;;;;;;;;;4911538;29;20317;-71
2023/12/11 02:04:39;;;;;;;2.77;0.67;;;;;;;;;;4915803;29;20179;-71
2023/12/11 02:07:04;;;;;;;0.60;0.60;;;;;;;;;;4911944;29;20225;-72
2023/12/11 02:09:30;;;;;;;0.70;0.63;;;;;;;;;;4909612;29;20180;-72
2023/12/11 02:11:57;;;;;;;0.67;0.67;;;;;;;;;;4912393;29;20186;-72
2023/12/11 02:14:23;;;;;;;0.80;0.80;;;;;;;;;;4912575;29;20179;-72
2023/12/11 02:16:48;;;;;;;1.43;0.67;;;;;;;;;;4912231;29;20208;-72
2023/12/11 02:19:14;;;;;;;0.50;0.50;;;;;;;;;;4909746;29;20193;-72
2023/12/11 02:21:39;;;;;;;0.83;0.67;;;;;;;;;;4910026;29;20207;-72
2023/12/11 02:24:04;;;;;;;0.63;0.57;;;;;;;;;;4911668;29;20278;-72
2023/12/11 02:26:29;;;;;;;1.67;1.57;;;;;;;;;;4910154;29;20270;-72
2023/12/11 02:28:55;;;;;;;0.90;0.90;;;;;;;;;;4910193;29;20268;-72
2023/12/11 02:31:20;;;;;;;0.87;0.67;;;;;;;;;;4912290;29;20175;-72
2023/12/11 02:33:45;;;;;;;0.70;0.70;;;;;;;;;;4907177;29;20189;-72
2023/12/11 02:36:10;;;;;;;0.50;0.50;;;;;;;;;;4911331;29;20190;-72
2023/12/11 02:38:36;;;;;;;0.77;0.77;;;;;;;;;;4915435;29;20187;-72
2023/12/11 02:41:01;;;;;;;2.40;0.80;;;;;;;;;;4908255;29;20202;-72
2023/12/11 02:43:26;;;;;;;0.60;0.60;;;;;;;;;;4912274;29;20183;-72
2023/12/11 02:45:51;;;;;;;0.60;0.50;;;;;;;;;;4912867;29;20189;-72
2023/12/11 02:48:18;;;;;;;0.40;0.40;;;;;;;;;;4909188;29;20183;-72
2023/12/11 02:50:43;;;;;;;0.50;0.50;;;;;;;;;;4913964;29;20222;-72
2023/12/11 02:53:09;;;;;;;0.60;0.60;;;;;;;;;;4908103;29;20231;-72
2023/12/11 02:55:34;;;;;;;1.73;0.77;;;;;;;;;;4911087;29;20259;-71
2023/12/11 02:58:00;;;;;;;1.03;0.73;;;;;;;;;;4913687;29;20235;-72
2023/12/11 03:00:26;;;;;;;0.60;0.60;;;;;;;;;;4909506;29;20612;-72
2023/12/11 03:02:53;;;;;;;0.60;0.57;;;;;;;;;;4914739;29;20226;-72
2023/12/11 03:05:18;;;;;;;1.63;0.70;;;;;;;;;;4916996;29;20179;-72
2023/12/11 03:07:43;;;;;;;0.97;0.60;;;;;;;;;;4911670;29;20250;-71
2023/12/11 03:10:08;;;;;;;1.23;0.70;;;;;;;;;;4912107;29;20201;-72
2023/12/11 03:12:34;;;;;;;0.50;0.50;;;;;;;;;;4909915;29;20175;-71
2023/12/11 03:14:59;;;;;;;0.57;0.50;;;;;;;;;;4912336;29;20187;-72
2023/12/11 03:17:24;;;;;;;0.40;0.40;;;;;;;;;;4911287;29;22047;-71
2023/12/11 03:19:49;;;;;;;0.73;0.70;;;;;;;;;;4912417;29;20194;-71
2023/12/11 03:22:15;;;;;;;0.70;0.70;;;;;;;;;;4909901;29;20293;-71
2023/12/11 03:24:40;;;;;;;0.80;0.80;;;;;;;;;;4911045;29;20207;-71
2023/12/11 03:27:05;;;;;;;0.67;0.67;;;;;;;;;;4908985;29;20187;-71
2023/12/11 03:29:30;;;;;;;0.60;0.60;;;;;;;;;;4909768;29;20269;-72
2023/12/11 03:31:55;;;;;;;0.40;0.40;;;;;;;;;;4910302;29;20186;-72
2023/12/11 03:34:21;;;;;;;0.50;0.50;;;;;;;;;;4911996;29;20194;-72
2023/12/11 03:36:46;;;;;;;1.27;1.17;;;;;;;;;;4909310;29;20258;-72
2023/12/11 03:39:11;;;;;;;0.70;0.70;;;;;;;;;;4913229;29;20174;-72
2023/12/11 03:41:37;;;;;;;0.63;0.63;;;;;;;;;;4909583;29;20191;-71
2023/12/11 03:44:03;;;;;;;1.10;1.03;;;;;;;;;;4911389;29;20179;-72
2023/12/11 03:46:28;;;;;;;2.00;1.00;;;;;;;;;;4910071;29;20178;-72
2023/12/11 03:48:53;;;;;;;0.90;0.80;;;;;;;;;;4907941;29;20185;-72
2023/12/11 03:51:18;;;;;;;0.97;0.97;;;;;;;;;;4912344;29;20335;-72
2023/12/11 03:53:44;;;;;;;0.80;0.80;;;;;;;;;;4909839;29;20219;-71
2023/12/11 03:56:09;;;;;;;1.03;0.97;;;;;;;;;;4912563;29;20370;-71
2023/12/11 03:58:34;;;;;;;1.43;1.10;;;;;;;;;;4912032;29;20179;-72
2023/12/11 04:00:59;;;;;;;1.87;1.40;;;;;;;;;;4912951;29;20210;-72
2023/12/11 04:03:24;;;;;;;1.30;1.20;;;;;;;;;;4913267;29;20173;-71
2023/12/11 04:05:50;;;;;;;2.90;1.40;;;;;;;;;;4916553;29;20190;-71
2023/12/11 04:08:15;;;;;;;1.00;1.00;;;;;;;;;;4913588;29;20423;-71
2023/12/11 04:10:41;;;;;;;3.63;2.90;;;;;;;;;;4913414;29;20184;-71
2023/12/11 04:13:06;;;;;;;1.63;1.20;;;;;;;;;;4910038;29;20270;-72
2023/12/11 04:15:31;;;;;;;3.03;1.10;;;;;;;;;;4915230;29;20342;-71
2023/12/11 04:17:56;;;;;;;2.47;1.03;;;;;;;;;;4916255;29;20179;-72
2023/12/11 04:20:21;;;;;;;0.80;0.80;;;;;;;;;;4907750;29;20185;-72
2023/12/11 04:22:47;;;;;;;1.50;1.10;;;;;;;;;;4913603;29;20225;-71
2023/12/11 04:25:12;;;;;;;0.73;0.73;;;;;;;;;;4915133;29;20205;-71
2023/12/11 04:27:37;;;;;;;2.60;1.60;;;;;;;;;;4914582;29;20171;-72
2023/12/11 04:30:04;;;;;;;1.17;1.07;;;;;;;;;;4914753;29;20179;-72
2023/12/11 04:32:29;;;;;;;1.40;1.30;;;;;;;;;;4915235;29;20179;-71
2023/12/11 04:34:54;;;;;;;1.37;1.10;;;;;;;;;;4915704;29;20207;-71
2023/12/11 04:37:20;;;;;;;0.90;0.90;;;;;;;;;;4914673;29;20185;-71
2023/12/11 04:39:45;;;;;;;2.27;1.10;;;;;;;;;;4914988;29;20183;-72
2023/12/11 04:42:10;;;;;;;1.00;0.90;;;;;;;;;;4905365;29;20206;-71
2023/12/11 04:44:35;;;;;;;1.70;1.50;;;;;;;;;;4914471;29;20171;-72
2023/12/11 04:47:00;;;;;;;2.17;1.30;;;;;;;;;;4911958;29;20183;-72
2023/12/11 04:49:26;;;;;;;2.20;1.43;;;;;;;;;;4915174;29;20203;-71
2023/12/11 04:51:51;;;;;;;5.83;1.40;;;;;;;;;;4916804;29;20208;-71
2023/12/11 04:54:16;;;;;;;2.00;1.23;;;;;;;;;;4919358;29;20257;-71
2023/12/11 04:56:41;;;;;;;1.87;1.50;;;;;;;;;;4913673;29;20185;-71
2023/12/11 04:59:06;;;;;;;1.20;0.80;;;;;;;;;;4914190;29;20226;-71
2023/12/11 05:01:32;;;;;;;1.13;0.97;;;;;;;;;;4913215;29;20261;-71
2023/12/11 05:03:57;;;;;;;1.57;1.30;;;;;;;;;;4917423;29;20226;-71
2023/12/11 05:06:22;;;;;;;2.03;0.90;;;;;;;;;;4909646;29;20202;-71
2023/12/11 05:08:47;;;;;;;1.87;1.30;;;;;;;;;;4914295;29;20167;-71
2023/12/11 05:11:12;;;;;;;2.23;1.20;;;;;;;;;;4913538;29;20180;-71
2023/12/11 05:13:38;;;;;;;2.27;1.67;;;;;;;;;;4912533;29;20179;-72
2023/12/11 05:16:03;;;;;;;2.60;1.60;;;;;;;;;;4913158;29;20195;-72
2023/12/11 05:18:28;;;;;;;1.80;1.20;;;;;;;;;;4908915;29;20202;-71
2023/12/11 05:20:53;;;;;;;2.83;2.10;;;;;;;;;;4913622;29;20213;-71
2023/12/11 05:23:19;;;;;;;1.10;0.93;;;;;;;;;;4912921;29;20261;-71
2023/12/11 05:25:44;;;;;;;1.70;1.40;;;;;;;;;;4915383;29;20205;-71
2023/12/11 05:28:10;;;;;;;1.27;1.17;;;;;;;;;;4912309;29;20579;-71
2023/12/11 05:30:38;;;;;;;1.77;1.27;;;;;;;;;;4912212;29;20175;-74
2023/12/11 05:33:03;;;;;;;1.50;1.40;;;;;;;;;;4909174;29;20251;-71
2023/12/11 05:35:28;;;;;;;1.30;1.17;;;;;;;;;;4914390;29;20190;-71
2023/12/11 05:37:55;;;;;;;1.77;1.00;;;;;;;;;;4912774;29;20210;-71
2023/12/11 05:40:20;;;;;;;2.00;1.43;;;;;;;;;;4913817;29;20172;-71
2023/12/11 05:42:46;;;;;;;1.10;1.00;;;;;;;;;;4915669;29;20207;-71
2023/12/11 05:45:11;;;;;;;1.60;1.37;;;;;;;;;;4909863;29;20178;-71
2023/12/11 05:47:37;;;;;;;1.20;1.10;;;;;;;;;;4915107;29;20183;-71
2023/12/11 05:50:02;;;;;;;1.57;0.90;;;;;;;;;;4912835;29;20213;-71
2023/12/11 05:52:27;;;;;;;4.40;1.37;;;;;;;;;;4912592;29;20167;-71
2023/12/11 05:54:52;;;;;;;3.00;1.20;;;;;;;;;;4917224;29;20226;-71
2023/12/11 05:57:17;;;;;;;2.33;1.20;;;;;;;;;;4910002;29;20185;-71
2023/12/11 05:59:43;;;;;;;2.67;1.40;;;;;;;;;;4911382;29;20243;-70
2023/12/11 06:02:08;;;;;;;1.33;1.20;;;;;;;;;;4908841;29;20203;-71
2023/12/11 06:04:33;;;;;;;0.87;0.87;;;;;;;;;;4914938;29;20211;-72
2023/12/11 06:06:58;;;;;;;2.43;1.13;;;;;;;;;;4907837;29;20193;-73
2023/12/11 06:09:23;;;;;;;2.20;1.00;;;;;;;;;;4909818;29;20280;-73
2023/12/11 06:11:49;;;;;;;4.67;1.50;;;;;;;;;;4913858;29;20261;-73
2023/12/11 06:14:14;;;;;;;2.97;1.47;;;;;;;;;;4911289;29;20225;-72
2023/12/11 06:16:39;;;;;;;2.30;1.60;;;;;;;;;;4910572;29;20210;-73
2023/12/11 06:19:04;;;;;;;2.77;1.10;;;;;;;;;;4908694;29;20185;-73
2023/12/11 06:21:30;;;;;;;3.73;2.20;;;;;;;;;;4910231;29;20186;-73
2023/12/11 06:23:55;;;;;;;1.60;1.00;;;;;;;;;;4910369;29;20186;-73
2023/12/11 06:26:42;;;;;;;2.07;1.30;;;;;;;;;;4913835;29;20170;-73
2023/12/11 06:29:07;;;;;;;2.07;1.23;;;;;;;;;;4906658;29;20199;-73
2023/12/11 06:31:32;;;;;;;1.37;1.03;;;;;;;;;;4901257;29;20182;-73
2023/12/11 06:33:57;;;;;;;2.03;1.00;;;;;;;;;;4908653;29;20193;-73
2023/12/11 06:36:23;;;;;;;2.70;1.20;;;;;;;;;;4912317;29;20198;-73
2023/12/11 06:38:51;;;;;;;1.30;0.87;;;;;;;;;;4915487;29;20183;-73
2023/12/11 06:41:17;;;;;;;3.80;1.27;;;;;;;;;;4907958;29;20210;-73
2023/12/11 06:43:53;;;;;;;2.43;1.30;;;;;;;;;;4910306;29;20180;-73
2023/12/11 06:46:18;;;;;;;1.07;0.97;;;;;;;;;;4910948;29;20178;-73
2023/12/11 06:48:43;;;;;;;1.37;1.20;;;;;;;;;;4912083;29;20191;-73
2023/12/11 06:51:08;;;;;;;1.07;0.97;;;;;;;;;;4912703;29;20220;-73
2023/12/11 06:53:34;;;;;;;1.37;1.07;;;;;;;;;;4910459;29;20222;-73
2023/12/11 06:55:59;;;;;;;1.93;1.30;;;;;;;;;;4909540;29;20218;-73
2023/12/11 06:58:24;;;;;;;3.13;2.13;;;;;;;;;;4907072;29;20182;-73
2023/12/11 07:00:50;;;;;;;4.50;3.90;;;;;;;;;;4912638;29;20305;-73
2023/12/11 07:03:15;;;;;;;9.57;3.57;;;;;;;;;;4909317;29;20197;-73
2023/12/11 07:05:42;;;;;;;2.43;1.80;;;;;;;;;;4912440;29;20174;-74
2023/12/11 07:08:07;;;;;;;3.30;2.60;;;;;;;;;;4919869;29;20208;-73
2023/12/11 07:10:32;;;;;;;1.93;1.77;;;;;;;;;;4911223;29;20309;-73
2023/12/11 07:12:57;;;;;;;2.20;1.80;;;;;;;;;;4913553;29;20177;-73
2023/12/11 07:15:23;;;;;;;2.87;1.93;;;;;;;;;;4902886;29;20203;-73
2023/12/11 07:17:48;;;;;;;3.03;2.03;;;;;;;;;;4916620;29;20260;-74
2023/12/11 07:20:13;;;;;;;4.50;3.23;;;;;;;;;;4911867;29;20197;-73
2023/12/11 07:22:38;;;;;;;2.60;1.80;;;;;;;;;;4908890;29;20230;-73
2023/12/11 07:25:04;;;;;;;3.77;1.77;;;;;;;;;;4908569;29;20182;-73
2023/12/11 07:27:30;;;;;;;2.17;1.90;;;;;;;;;;4905728;29;20165;-73
2023/12/11 07:29:55;;;;;;;2.43;1.70;;;;;;;;;;4910315;29;20187;-73
2023/12/11 07:32:20;;;;;;;1.40;1.30;;;;;;;;;;4908939;29;20191;-73
2023/12/11 07:34:45;;;;;;;2.50;2.00;;;;;;;;;;4911197;29;20196;-73
2023/12/11 07:37:11;;;;;;;1.77;1.67;;;;;;;;;;4912092;29;20216;-73
2023/12/11 07:39:36;;;;;;;2.40;1.67;;;;;;;;;;4916921;29;20327;-73
2023/12/11 07:42:01;;;;;;;2.30;2.10;;;;;;;;;;4910894;29;20205;-73
2023/12/11 07:44:26;;;;;;;3.90;3.40;;;;;;;;;;4912552;29;20247;-73
2023/12/11 07:46:52;;;;;;;1.40;1.30;;;;;;;;;;4914007;29;20177;-73
2023/12/11 07:49:17;;;;;;;2.30;1.30;;;;;;;;;;4908199;29;20489;-73
2023/12/11 07:51:43;;;;;;;3.53;1.23;;;;;;;;;;4912191;29;20206;-73
2023/12/11 07:54:08;;;;;;;1.83;1.30;;;;;;;;;;4912013;29;20241;-73
2023/12/11 07:56:35;;;;;;;6.03;1.60;;;;;;;;;;4916239;29;20175;-73
2023/12/11 07:59:00;;;;;;;1.33;1.10;;;;;;;;;;4909494;29;20191;-73
2023/12/11 08:01:28;;;;;;;1.77;1.30;;;;;;;;;;4910852;29;20331;-73
2023/12/11 08:03:54;;;;;;;1.13;1.03;;;;;;;;;;4913712;29;20186;-73
2023/12/11 08:06:19;;;;;;;1.23;1.13;;;;;;;;;;4911083;29;20171;-73
2023/12/11 08:08:44;;;;;;;2.00;1.10;;;;;;;;;;4914774;29;20191;-73
2023/12/11 08:11:17;;;;;;;1.90;1.17;;;;;;;;;;4914790;29;20234;-73
2023/12/11 08:13:43;;;;;;;1.53;1.17;;;;;;;;;;4911161;29;20183;-73
2023/12/11 08:16:08;;;;;;;3.80;1.70;;;;;;;;;;4917016;29;20184;-73
2023/12/11 08:18:33;;;;;;;2.57;1.30;;;;;;;;;;4914366;29;20257;-73
2023/12/11 08:20:58;;;;;;;3.70;1.10;;;;;;;;;;4915081;29;20217;-73
2023/12/11 08:23:24;;;;;;;2.23;1.17;;;;;;;;;;4917136;29;20477;-73
2023/12/11 08:25:49;;;;;;;2.00;1.30;;;;;;;;;;4914244;29;20210;-73
2023/12/11 08:28:14;;;;;;;3.77;1.70;;;;;;;;;;4915710;29;20261;-73
2023/12/11 08:30:39;;;;;;;2.30;1.37;;;;;;;;;;4913998;29;20183;-73
2023/12/11 08:33:04;;;;;;;2.70;1.33;;;;;;;;;;4910411;29;20274;-73
2023/12/11 08:35:29;;;;;;;2.20;1.03;;;;;;;;;;4912651;29;20263;-73
2023/12/11 08:37:55;;;;;;;3.17;1.80;;;;;;;;;;4910430;29;20253;-73
2023/12/11 08:40:20;;;;;;;2.13;1.43;;;;;;;;;;4914173;29;20266;-73
2023/12/11 08:42:46;;;;;;;1.97;1.17;;;;;;;;;;4913520;29;20201;-73
2023/12/11 08:45:11;;;;;;;1.73;1.30;;;;;;;;;;4912445;29;20178;-73
2023/12/11 08:47:41;;;;;;;3.80;1.03;;;;;;;;;;4913616;29;20183;-73
2023/12/11 08:50:07;;;;;;;1.73;1.07;;;;;;;;;;4914384;29;20186;-73
2023/12/11 08:52:32;;;;;;;1.63;1.20;;;;;;;;;;4907677;29;20195;-73
2023/12/11 08:54:57;;;;;;;2.23;1.27;;;;;;;;;;4911700;29;20232;-73
2023/12/11 08:57:22;;;;;;;3.80;1.40;;;;;;;;;;4913842;29;20180;-73
2023/12/11 08:59:47;;;;;;;2.03;1.30;;;;;;;;;;4909211;29;20329;-73
2023/12/11 09:02:13;;;;;;;3.27;1.73;;;;;;;;;;4911881;29;20202;-73
2023/12/11 09:04:38;;;;;;;2.67;1.20;;;;;;;;;;4911724;29;20182;-73
2023/12/11 09:07:03;;;;;;;2.27;1.40;;;;;;;;;;4912438;29;20178;-73
2023/12/11 09:09:28;;;;;;;2.37;1.47;;;;;;;;;;4911621;29;20175;-73
2023/12/11 09:11:54;;;;;;;1.27;0.90;;;;;;;;;;4913002;29;20186;-73
2023/12/11 09:14:19;;;;;;;2.30;1.10;;;;;;;;;;4909197;29;20179;-73
2023/12/11 09:16:44;;;;;;;2.40;1.30;;;;;;;;;;4914124;29;20178;-73
2023/12/11 09:19:09;;;;;;;4.77;1.57;;;;;;;;;;4913308;29;20175;-73
2023/12/11 09:21:35;;;;;;;1.20;0.97;;;;;;;;;;4914154;29;20187;-73
2023/12/11 09:24:00;;;;;;;1.73;1.20;;;;;;;;;;4906190;29;20211;-73
2023/12/11 09:26:25;;;;;;;1.77;1.10;;;;;;;;;;4912040;29;20202;-73
2023/12/11 09:28:50;;;;;;;4.40;1.13;;;;;;;;;;4910221;29;20209;-73
2023/12/11 09:31:17;;;;;;;2.70;1.17;;;;;;;;;;4906941;29;20201;-73
2023/12/11 09:33:42;;;;;;;2.83;1.73;;;;;;;;;;4909614;29;20266;-73
2023/12/11 09:36:08;;;;;;;2.80;1.10;;;;;;;;;;4907732;29;20246;-75
2023/12/11 09:38:33;;;;;;;1.77;1.20;;;;;;;;;;4912118;29;20171;-75
2023/12/11 09:40:59;;;;;;;2.07;1.17;;;;;;;;;;4907292;29;20180;-75
2023/12/11 09:43:24;;;;;;;1.80;1.00;;;;;;;;;;4909283;29;20171;-75
2023/12/11 09:45:50;;;;;;;3.13;1.17;;;;;;;;;;4912025;29;20175;-75
2023/12/11 09:48:16;;;;;;;3.00;1.27;;;;;;;;;;4908113;29;20540;-75
2023/12/11 09:50:41;;;;;;;0.93;0.93;;;;;;;;;;4905458;29;20187;-75
2023/12/11 09:53:08;;;;;;;4.17;1.30;;;;;;;;;;4909339;29;20230;-75
2023/12/11 09:55:33;;;;;;;3.07;1.97;;;;;;;;;;4906798;29;20261;-75
2023/12/11 09:57:58;;;;;;;4.57;2.20;;;;;;;;;;4906860;29;20234;-75
2023/12/11 10:00:24;;;;;;;6.67;1.70;;;;;;;;;;4909212;29;20203;-75
2023/12/11 10:02:50;;;;;;;3.60;1.53;;;;;;;;;;4905571;29;20211;-75
2023/12/11 10:05:24;;;;;;;4.73;1.30;;;;;;;;;;4905648;29;20172;-75
2023/12/11 10:07:49;;;;;;;6.03;1.43;;;;;;;;;;4908925;29;20339;-74
2023/12/11 10:10:18;;;;;;;2.13;1.53;;;;;;;;;;4897864;29;20254;-75
2023/12/11 10:12:43;;;;;;;6.40;1.60;;;;;;;;;;4910010;29;20186;-75
2023/12/11 10:15:09;;;;;;;2.80;1.80;;;;;;;;;;4902952;29;20180;-75
2023/12/11 10:17:34;;;;;;;4.20;1.87;;;;;;;;;;4910879;29;20203;-75
2023/12/11 10:19:59;;;;;;;3.87;1.73;;;;;;;;;;4912755;29;20175;-75
2023/12/11 10:22:29;;;;;;;8.40;2.27;;;;;;;;;;4908744;29;20228;-75
2023/12/11 10:24:54;;;;;;;3.77;1.97;;;;;;;;;;4914105;29;20202;-75
2023/12/11 10:27:23;;;;;;;4.23;1.43;;;;;;;;;;4910337;29;20206;-75
2023/12/11 10:30:05;;;;;;;3.10;1.50;;;;;;;;;;4912650;29;20207;-75
2023/12/11 10:32:30;;;;;;;3.37;1.93;;;;;;;;;;4912047;29;20270;-75
2023/12/11 10:34:55;;;;;;;4.73;2.07;;;;;;;;;;4911083;29;20408;-75
2023/12/11 10:37:27;;;;;;;5.23;2.17;;;;;;;;;;4912000;29;20201;-75
2023/12/11 10:39:55;;;;;;;3.70;1.70;;;;;;;;;;4908129;29;20183;-75
2023/12/11 10:42:20;;;;;;;3.73;1.60;;;;;;;;;;4912306;29;20213;-75
2023/12/11 10:44:46;;;;;;;4.40;2.10;;;;;;;;;;4911830;29;20170;-75
2023/12/11 10:47:11;;;;;;;5.10;2.53;;;;;;;;;;4912348;29;20179;-75
2023/12/11 10:49:37;;;;;;;1.87;1.40;;;;;;;;;;4913201;29;20183;-75
2023/12/11 10:52:02;;;;;;;4.80;1.87;;;;;;;;;;4913724;29;20191;-75
2023/12/11 10:54:28;;;;;;;3.40;1.57;;;;;;;;;;4910625;29;20630;-75
2023/12/11 10:56:55;;;;;;;4.43;1.80;;;;;;;;;;4910706;29;20176;-75
2023/12/11 10:59:21;;;;;;;3.27;1.80;;;;;;;;;;4910271;29;20190;-75
2023/12/11 11:01:47;;;;;;;4.03;1.70;;;;;;;;;;4917597;29;20191;-75
2023/12/11 11:04:13;;;;;;;3.07;1.43;;;;;;;;;;4909090;29;20183;-75
2023/12/11 11:06:46;;;;;;;5.03;2.23;;;;;;;;;;4909858;29;20190;-75
2023/12/11 11:09:15;;;;;;;4.10;2.20;;;;;;;;;;4912082;29;20243;-75
2023/12/11 11:11:42;;;;;;;3.03;1.53;;;;;;;;;;4910062;29;20449;-75
2023/12/11 11:14:17;;;;;;;3.57;1.77;;;;;;;;;;4911491;29;20175;-75
2023/12/11 11:16:55;;;;;;;5.07;1.90;;;;;;;;;;4910057;29;20214;-75
2023/12/11 11:19:20;;;;;;;5.57;2.20;;;;;;;;;;4904184;29;20263;-75
2023/12/11 11:22:03;;;;;;;4.47;1.93;;;;;;;;;;4912768;29;20291;-75
2023/12/11 11:24:29;;;;;;;3.67;2.17;;;;;;;;;;4903341;29;20178;-75
2023/12/11 11:26:54;;;;;;;7.23;2.27;;;;;;;;;;4911317;29;20175;-75
2023/12/11 11:29:36;;;;;;;5.40;2.20;;;;;;;;;;4906096;29;20176;-75
2023/12/11 11:32:02;;;;;;;4.10;1.90;;;;;;;;;;4922002;29;20186;-75
2023/12/11 11:34:41;;;;;;;3.70;1.70;;;;;;;;;;4913082;29;20180;-75
2023/12/11 11:37:21;;;;;;;3.70;2.40;;;;;;;;;;4911277;29;20183;-75
2023/12/11 11:39:59;;;;;;;5.47;1.70;;;;;;;;;;4910804;29;20295;-75
2023/12/11 11:42:28;;;;;;;4.53;1.97;;;;;;;;;;4914887;29;20209;-75
2023/12/11 11:44:54;;;;;;;8.30;2.10;;;;;;;;;;4910503;29;20186;-75
2023/12/11 11:47:19;;;;;;;7.10;2.93;;;;;;;;;;4913275;29;20180;-75
2023/12/11 11:49:45;;;;;;;3.93;1.63;;;;;;;;;;4913783;29;20188;-75
2023/12/11 11:52:11;;;;;;;3.77;2.17;;;;;;;;;;4912348;29;20278;-75
2023/12/11 11:54:37;;;;;;;8.70;2.20;;;;;;;;;;4908671;29;20550;-75
2023/12/11 11:57:03;;;;;;;6.83;2.20;;;;;;;;;;4913848;29;20193;-75
2023/12/11 11:59:28;;;;;;;5.13;1.90;;;;;;;;;;4912033;29;20178;-75
2023/12/11 12:01:53;;;;;;;9.00;2.90;;;;;;;;;;4911222;29;20201;-75
2023/12/11 12:04:24;;;;;;;7.07;2.60;;;;;;;;;;4914809;29;20177;-75
2023/12/11 12:06:50;;;;;;;7.43;2.13;;;;;;;;;;4914085;29;20242;-75
2023/12/11 12:09:18;;;;;;;8.23;2.97;;;;;;;;;;4911527;29;20179;-75
2023/12/11 12:11:43;;;;;;;7.67;3.70;;;;;;;;;;4912099;29;20182;-75
2023/12/11 12:14:15;;;;;;;7.67;5.50;;;;;;;;;;4910345;29;20238;-75
2023/12/11 12:16:40;;;;;;;6.23;2.30;;;;;;;;;;4913701;29;20175;-75
2023/12/11 12:19:06;;;;;;;6.43;2.37;;;;;;;;;;4909669;29;20212;-75
2023/12/11 12:21:32;;;;;;;4.47;2.07;;;;;;;;;;4906219;29;20282;-75
2023/12/11 12:24:04;;;;;;;7.87;2.20;;;;;;;;;;4912835;29;20179;-75
2023/12/11 12:26:33;;;;;;;5.07;2.10;;;;;;;;;;4916518;29;20176;-75
2023/12/11 12:28:59;;;;;;;4.40;1.90;;;;;;;;;;4908560;29;20189;-75
2023/12/11 12:31:24;;;;;;;5.37;2.00;;;;;;;;;;4913766;29;20249;-74
2023/12/11 12:33:49;;;;;;;5.10;2.40;;;;;;;;;;4912410;29;20253;-75
2023/12/11 12:36:15;;;;;;;5.23;2.20;;;;;;;;;;4911358;29;20180;-75
2023/12/11 12:38:40;;;;;;;3.70;1.50;;;;;;;;;;4904942;29;20202;-75
2023/12/11 12:41:10;;;;;;;4.47;2.53;;;;;;;;;;4912476;29;20175;-75
2023/12/11 12:43:35;;;;;;;4.90;2.00;;;;;;;;;;4914419;29;20183;-75
2023/12/11 12:46:01;;;;;;;3.17;1.60;;;;;;;;;;4920531;29;20179;-75
2023/12/11 12:48:26;;;;;;;4.40;1.80;;;;;;;;;;4909053;29;20187;-75
2023/12/11 12:51:03;;;;;;;6.10;2.20;;;;;;;;;;4910194;29;20180;-75
2023/12/11 12:53:29;;;;;;;6.90;2.27;;;;;;;;;;4912666;29;20289;-75
2023/12/11 12:55:55;;;;;;;5.13;2.20;;;;;;;;;;4917152;29;20190;-75
2023/12/11 12:58:26;;;;;;;8.30;2.63;;;;;;;;;;4916135;29;20182;-75
2023/12/11 13:00:55;;;;;;;9.97;2.17;;;;;;;;;;4915855;29;20180;-75
2023/12/11 13:03:23;;;;;;;4.70;2.40;;;;;;;;;;4908528;29;20190;-75
2023/12/11 13:05:50;;;;;;;3.57;1.70;;;;;;;;;;4912338;29;20352;-75
2023/12/11 13:08:15;;;;;;;4.70;2.00;;;;;;;;;;4912230;29;20179;-75
2023/12/11 13:10:54;;;;;;;2.90;1.77;;;;;;;;;;4911488;29;20187;-75
2023/12/11 13:13:21;;;;;;;4.83;1.90;;;;;;;;;;4912039;29;20541;-75
2023/12/11 13:15:47;;;;;;;4.77;2.17;;;;;;;;;;4914047;29;20175;-75
2023/12/11 13:18:15;;;;;;;5.33;1.67;;;;;;;;;;4914321;29;20436;-75
2023/12/11 13:20:40;;;;;;;8.27;2.63;;;;;;;;;;4912614;29;20171;-75
2023/12/11 13:23:05;;;;;;;5.17;2.50;;;;;;;;;;4909631;29;20214;-75
2023/12/11 13:25:31;;;;;;;8.03;2.33;;;;;;;;;;4913525;29;20182;-75
2023/12/11 13:27:56;;;;;;;10.30;3.33;;;;;;;;;;4915016;29;20185;-74
2023/12/11 13:30:22;;;;;;;7.07;2.40;;;;;;;;;;4911437;29;20273;-75
2023/12/11 13:32:47;;;;;;;8.60;3.23;;;;;;;;;;4917241;29;20178;-75
2023/12/11 13:35:12;;;;;;;5.87;2.50;;;;;;;;;;4912429;29;20174;-75
2023/12/11 13:37:37;;;;;;;5.07;2.30;;;;;;;;;;4916732;29;20259;-75
2023/12/11 13:40:05;;;;;;;5.83;3.10;;;;;;;;;;4913580;29;20242;-75
2023/12/11 13:42:30;;;;;;;5.33;2.60;;;;;;;;;;4912969;29;20190;-74
2023/12/11 13:44:58;;;;;;;5.77;2.47;;;;;;;;;;4916761;29;20205;-75
2023/12/11 13:47:23;;;;;;;6.03;2.60;;;;;;;;;;4910940;29;20206;-75
2023/12/11 13:49:48;;;;;;;5.87;2.73;;;;;;;;;;4909027;29;20183;-75
2023/12/11 13:52:14;;;;;;;7.43;2.90;;;;;;;;;;4908331;29;20186;-75
2023/12/11 13:54:39;;;;;;;4.90;1.90;;;;;;;;;;4913952;29;20234;-75
2023/12/11 13:57:04;;;;;;;6.20;2.43;;;;;;;;;;4917041;29;20190;-75
2023/12/11 13:59:29;;;;;;;6.43;3.30;;;;;;;;;;4911704;29;20210;-75
2023/12/11 14:01:57;;;;;;;6.83;2.37;;;;;;;;;;4911777;29;20272;-75
2023/12/11 14:04:24;;;;;;;9.90;3.60;;;;;;;;;;4907788;29;20171;-75
2023/12/11 14:06:49;;;;;;;5.60;3.13;;;;;;;;;;4911230;29;20253;-75
2023/12/11 14:09:14;;;;;;;9.00;3.20;;;;;;;;;;4911897;29;20290;-75
2023/12/11 14:11:40;;;;;;;8.23;2.60;;;;;;;;;;4910888;29;20210;-72
2023/12/11 14:14:05;;;;;;;10.00;4.37;;;;;;;;;;4912352;29;20179;-72
2023/12/11 14:16:31;;;;;;;5.30;2.23;;;;;;;;;;4913631;29;20185;-72
2023/12/11 14:18:56;;;;;;;8.23;2.80;;;;;;;;;;4911015;29;20184;-73
2023/12/11 14:21:22;;;;;;;8.03;2.43;;;;;;;;;;4909177;29;20198;-73
2023/12/11 14:23:47;;;;;;;10.13;3.47;;;;;;;;;;4906564;29;20187;-72
2023/12/11 14:26:12;;;;;;;6.93;2.47;;;;;;;;;;4908359;29;20201;-73
2023/12/11 14:28:37;;;;;;;6.10;2.47;;;;;;;;;;4906858;29;20176;-72
2023/12/11 14:31:03;;;;;;;9.37;3.73;;;;;;;;;;4899776;29;20217;-72
2023/12/11 14:33:28;;;;;;;9.63;2.37;;;;;;;;;;4905211;29;20175;-72
2023/12/11 14:35:53;;;;;;;11.67;3.07;;;;;;;;;;4903423;29;20268;-71